createdAt,value
2022-10-29T00:00:48.680Z,67.16
2022-10-29T00:03:15.295Z,67.02
2022-10-29T00:05:42.022Z,67.15
2022-10-29T00:08:08.765Z,67.35
2022-10-29T00:10:35.581Z,67.44
2022-10-29T00:13:03.399Z,67.76
2022-10-29T00:15:30.179Z,67.88
2022-10-29T00:17:57.083Z,68.32
2022-10-29T00:20:23.975Z,68.43
2022-10-29T00:22:54.364Z,68.70
2022-10-29T00:25:21.462Z,68.67
2022-10-29T00:27:48.168Z,68.65
2022-10-29T00:30:14.757Z,68.50
2022-10-29T00:32:41.350Z,68.72
2022-10-29T00:35:08.261Z,68.59
2022-10-29T00:37:35.638Z,68.72
2022-10-29T00:40:02.265Z,68.63
2022-10-29T00:42:29.226Z,68.85
2022-10-29T00:44:55.945Z,69.18
2022-10-29T00:47:36.362Z,69.39
2022-10-29T00:50:08.306Z,69.57
2022-10-29T00:52:38.916Z,70.39
2022-10-29T00:55:08.726Z,71.81
2022-10-29T00:57:47.793Z,71.34
2022-10-29T01:00:19.330Z,71.19
2022-10-29T01:02:46.076Z,70.90
2022-10-29T01:05:18.726Z,69.29
2022-10-29T01:07:46.227Z,69.38
2022-10-29T01:10:13.699Z,69.69
2022-10-29T01:13:06.400Z,70.55
2022-10-29T01:16:14.901Z,71.91
2022-10-29T01:18:57.097Z,72.42
2022-10-29T01:21:36.141Z,72.05
2022-10-29T01:24:20.457Z,71.87
2022-10-29T01:27:16.283Z,71.53
2022-10-29T01:29:45.704Z,71.47
2022-10-29T01:32:31.129Z,71.40
2022-10-29T01:35:14.933Z,72.27
2022-10-29T01:37:50.299Z,73.00
2022-10-29T01:40:34.885Z,73.09
2022-10-29T01:43:04.395Z,72.98
2022-10-29T01:45:39.490Z,73.53
2022-10-29T01:48:12.104Z,73.38
2022-10-29T01:50:42.346Z,74.00
2022-10-29T01:53:09.313Z,74.00
2022-10-29T01:55:35.924Z,73.92
2022-10-29T01:58:06.430Z,73.45
2022-10-29T02:00:54.951Z,73.09
2022-10-29T02:03:54.247Z,72.88
2022-10-29T02:06:41.785Z,72.58
2022-10-29T02:09:18.346Z,72.21
2022-10-29T02:12:21.473Z,72.21
2022-10-29T02:14:53.474Z,71.82
2022-10-29T02:17:20.335Z,71.40
2022-10-29T02:19:46.918Z,71.18
2022-10-29T02:22:13.594Z,70.82
2022-10-29T02:24:40.082Z,70.73
2022-10-29T02:27:06.654Z,70.51
2022-10-29T02:29:33.208Z,71.02
2022-10-29T02:31:59.747Z,70.96
2022-10-29T02:34:26.254Z,70.98
2022-10-29T02:36:52.909Z,70.82
2022-10-29T02:39:19.410Z,71.91
2022-10-29T02:41:45.998Z,72.17
2022-10-29T02:44:12.534Z,72.30
2022-10-29T02:46:39.110Z,71.78
2022-10-29T02:49:08.444Z,71.46
2022-10-29T02:51:35.167Z,71.04
2022-10-29T02:54:01.664Z,71.17
2022-10-29T02:56:28.280Z,71.25
2022-10-29T02:58:55.357Z,72.70
2022-10-29T03:01:22.036Z,73.23
2022-10-29T03:03:48.622Z,73.39
2022-10-29T03:06:17.486Z,72.74
2022-10-29T03:08:45.118Z,72.79
2022-10-29T03:11:12.080Z,73.28
2022-10-29T03:13:39.158Z,74.76
2022-10-29T03:16:05.840Z,75.10
2022-10-29T03:18:32.470Z,75.05
2022-10-29T03:20:59.117Z,75.16
2022-10-29T03:23:25.767Z,75.00
2022-10-29T03:25:55.825Z,74.38
2022-10-29T03:28:25.135Z,73.63
2022-10-29T03:30:51.702Z,72.70
2022-10-29T03:33:18.287Z,72.13
2022-10-29T03:35:45.055Z,72.09
2022-10-29T03:38:11.714Z,71.95
2022-10-29T03:40:38.214Z,71.94
2022-10-29T03:43:04.889Z,72.37
2022-10-29T03:45:31.445Z,72.20
2022-10-29T03:47:58.273Z,72.44
2022-10-29T03:50:25.014Z,72.48
2022-10-29T03:52:51.590Z,72.79
2022-10-29T03:55:18.096Z,73.47
2022-10-29T03:57:45.360Z,73.35
2022-10-29T04:00:12.353Z,73.29
2022-10-29T04:02:42.418Z,72.77
2022-10-29T04:05:09.233Z,72.74
2022-10-29T04:07:35.813Z,72.63
2022-10-29T04:10:02.327Z,72.90
2022-10-29T04:12:28.962Z,72.26
2022-10-29T04:14:55.473Z,73.42
2022-10-29T04:17:22.215Z,74.14
2022-10-29T04:19:48.840Z,73.55
2022-10-29T04:28:42.021Z,74.04
2022-10-29T04:30:35.265Z,73.79
2022-10-29T04:33:01.768Z,73.75
2022-10-29T04:35:28.773Z,74.05
2022-10-29T04:37:55.719Z,74.27
2022-10-29T04:40:23.768Z,75.18
2022-10-29T04:42:50.824Z,75.25
2022-10-29T04:45:17.933Z,74.69
2022-10-29T04:47:44.703Z,74.86
2022-10-29T04:50:11.357Z,74.68
2022-10-29T04:52:37.897Z,74.57
2022-10-29T04:55:04.893Z,74.43
2022-10-29T04:57:31.405Z,74.53
2022-10-29T04:59:58.179Z,74.78
2022-10-29T05:02:24.669Z,74.70
2022-10-29T05:04:51.235Z,74.85
2022-10-29T05:07:17.807Z,74.81
2022-10-29T05:09:44.387Z,74.94
2022-10-29T05:12:10.891Z,75.94
2022-10-29T05:14:37.467Z,76.75
2022-10-29T05:17:04.032Z,76.06
2022-10-29T05:19:30.670Z,75.40
2022-10-29T05:21:57.266Z,75.30
2022-10-29T05:24:23.906Z,74.88
2022-10-29T05:26:50.403Z,74.60
2022-10-29T05:29:17.028Z,74.64
2022-10-29T05:31:43.536Z,74.73
2022-10-29T05:34:10.078Z,74.66
2022-10-29T05:36:36.634Z,74.64
2022-10-29T05:39:03.305Z,74.95
2022-10-29T05:41:29.802Z,75.03
2022-10-29T05:43:56.410Z,75.09
2022-10-29T05:46:22.908Z,74.98
2022-10-29T05:48:49.514Z,74.83
2022-10-29T05:51:16.034Z,74.83
2022-10-29T05:53:42.623Z,75.40
2022-10-29T05:56:09.122Z,75.60
2022-10-29T05:58:35.782Z,76.19
2022-10-29T06:01:06.472Z,75.96
2022-10-29T06:03:33.288Z,75.50
2022-10-29T06:06:00.068Z,75.12
2022-10-29T06:08:26.855Z,74.37
2022-10-29T06:10:53.538Z,74.11
2022-10-29T06:13:22.089Z,74.79
2022-10-29T06:15:50.023Z,74.93
2022-10-29T06:18:16.672Z,74.56
2022-10-29T06:20:43.194Z,75.25
2022-10-29T06:23:10.704Z,75.17
2022-10-29T06:25:37.238Z,75.67
2022-10-29T06:28:09.485Z,76.02
2022-10-29T06:30:36.486Z,75.71
2022-10-29T06:33:04.790Z,75.56
2022-10-29T06:35:32.078Z,75.84
2022-10-29T06:37:59.219Z,75.56
2022-10-29T06:40:26.292Z,75.69
2022-10-29T06:43:00.520Z,76.30
2022-10-29T06:45:28.557Z,76.30
2022-10-29T06:47:55.323Z,76.49
2022-10-29T06:50:22.161Z,76.77
2022-10-29T06:52:59.611Z,77.18
2022-10-29T06:55:27.027Z,77.61
2022-10-29T06:58:07.124Z,77.53
2022-10-29T07:00:34.809Z,77.53
2022-10-29T07:03:02.066Z,77.58
2022-10-29T07:05:32.951Z,77.49
2022-10-29T07:08:01.213Z,77.48
2022-10-29T07:10:30.368Z,77.82
2022-10-29T07:12:57.047Z,78.12
2022-10-29T07:15:27.292Z,78.35
2022-10-29T07:18:02.296Z,78.31
2022-10-29T07:20:32.002Z,78.57
2022-10-29T07:22:58.960Z,78.74
2022-10-29T07:25:26.040Z,78.50
2022-10-29T07:27:52.668Z,78.44
2022-10-29T07:30:20.060Z,78.51
2022-10-29T07:32:46.609Z,78.66
2022-10-29T07:35:13.276Z,78.66
2022-10-29T07:37:39.784Z,79.00
2022-10-29T07:40:07.230Z,79.28
2022-10-29T07:42:33.798Z,79.62
2022-10-29T07:45:00.332Z,79.64
2022-10-29T07:47:26.881Z,79.43
2022-10-29T07:49:53.572Z,79.69
2022-10-29T07:52:20.100Z,80.01
2022-10-29T07:54:46.659Z,79.75
2022-10-29T07:57:13.206Z,79.96
2022-10-29T07:59:39.771Z,79.67
2022-10-29T08:02:08.320Z,79.85
2022-10-29T08:04:34.996Z,79.96
2022-10-29T08:07:01.669Z,79.86
2022-10-29T08:09:28.239Z,80.42
2022-10-29T08:11:54.793Z,80.90
2022-10-29T08:14:22.793Z,80.54
2022-10-29T08:16:49.445Z,80.50
2022-10-29T08:19:16.141Z,80.38
2022-10-29T08:21:42.657Z,80.35
2022-10-29T08:24:10.166Z,80.38
2022-10-29T08:26:36.710Z,80.13
2022-10-29T08:29:03.480Z,79.61
2022-10-29T08:31:29.986Z,80.11
2022-10-29T08:33:56.678Z,80.51
2022-10-29T08:36:23.209Z,80.76
2022-10-29T08:38:49.817Z,81.06
2022-10-29T08:41:19.372Z,81.25
2022-10-29T08:44:07.941Z,81.39
2022-10-29T08:46:46.616Z,82.19
2022-10-29T08:49:39.859Z,82.02
2022-10-29T08:52:28.242Z,80.96
2022-10-29T08:55:06.546Z,80.91
2022-10-29T08:57:42.134Z,81.06
2022-10-29T09:00:17.153Z,80.88
2022-10-29T09:02:43.903Z,81.58
2022-10-29T09:05:16.049Z,81.59
2022-10-29T09:08:05.138Z,81.25
2022-10-29T09:10:31.670Z,81.15
2022-10-29T09:13:16.969Z,81.16
2022-10-29T09:16:12.316Z,80.60
2022-10-29T09:19:05.969Z,80.05
2022-10-29T09:21:39.254Z,79.06
2022-10-29T09:24:11.937Z,78.56
2022-10-29T09:26:53.017Z,78.31
2022-10-29T09:29:45.983Z,78.13
2022-10-29T09:32:15.218Z,77.84
2022-10-29T09:34:47.228Z,77.43
2022-10-29T09:37:17.083Z,76.73
2022-10-29T09:39:46.028Z,76.92
2022-10-29T09:42:18.082Z,75.84
2022-10-29T09:44:54.738Z,75.65
2022-10-29T09:47:48.953Z,76.17
2022-10-29T09:50:34.664Z,75.39
2022-10-29T09:53:01.676Z,75.49
2022-10-29T09:55:45.936Z,74.95
2022-10-29T09:58:20.460Z,74.80
2022-10-29T10:00:47.063Z,74.18
2022-10-29T10:03:23.445Z,75.07
2022-10-29T10:06:05.424Z,75.13
2022-10-29T10:08:33.086Z,74.67
2022-10-29T10:11:01.713Z,75.24
2022-10-29T10:13:34.807Z,74.53
2022-10-29T10:16:04.386Z,74.03
2022-10-29T10:18:30.934Z,71.88
2022-10-29T10:21:02.596Z,73.01
2022-10-29T10:23:30.761Z,71.41
2022-10-29T10:26:02.330Z,69.23
2022-10-29T10:28:32.937Z,68.05
2022-10-29T10:31:13.286Z,69.40
2022-10-29T10:33:54.158Z,68.76
2022-10-29T10:36:25.442Z,69.04
2022-10-29T10:38:55.388Z,68.07
2022-10-29T10:41:30.230Z,67.23
2022-10-29T10:44:03.342Z,67.73
2022-10-29T10:46:35.514Z,67.12
2022-10-29T10:49:06.649Z,67.19
2022-10-29T10:51:36.015Z,67.26
2022-10-29T10:54:22.755Z,67.87
2022-10-29T10:57:16.939Z,68.53
2022-10-29T10:59:56.869Z,69.09
2022-10-29T11:03:01.343Z,69.39
2022-10-29T11:05:49.288Z,70.11
2022-10-29T11:08:19.412Z,69.56
2022-10-29T11:10:55.865Z,70.79
2022-10-29T11:13:29.973Z,70.34
2022-10-29T11:16:16.380Z,73.79
2022-10-29T11:18:53.323Z,72.58
2022-10-29T11:21:39.582Z,72.03
2022-10-29T11:24:11.037Z,70.77
2022-10-29T11:26:44.542Z,70.87
2022-10-29T11:29:30.999Z,69.63
2022-10-29T11:32:12.530Z,70.29
2022-10-29T11:34:56.713Z,70.41
2022-10-29T11:37:34.031Z,70.73
2022-10-29T11:40:51.357Z,70.68
2022-10-29T11:43:20.671Z,69.32
2022-10-29T11:46:03.703Z,68.71
2022-10-29T11:48:36.125Z,69.15
2022-10-29T11:51:31.160Z,69.23
2022-10-29T11:54:22.102Z,68.17
2022-10-29T11:56:52.596Z,67.91
2022-10-29T11:59:28.453Z,67.26
2022-10-29T12:02:07.115Z,66.66
2022-10-29T12:04:42.778Z,67.03
2022-10-29T12:07:24.973Z,67.53
2022-10-29T12:10:00.373Z,66.72
2022-10-29T12:12:37.655Z,65.08
2022-10-29T12:15:17.617Z,63.49
2022-10-29T12:17:53.596Z,65.06
2022-10-29T12:20:32.554Z,65.26
2022-10-29T12:23:15.087Z,64.92
2022-10-29T12:26:11.131Z,64.29
2022-10-29T12:29:06.960Z,64.04
2022-10-29T12:31:41.228Z,63.87
2022-10-29T12:34:07.771Z,62.83
2022-10-29T12:36:45.784Z,61.23
2022-10-29T12:39:27.578Z,60.58
2022-10-29T12:42:01.260Z,61.18
2022-10-29T12:44:39.977Z,60.56
2022-10-29T12:47:24.161Z,60.98
2022-10-29T12:50:12.611Z,60.28
2022-10-29T12:52:57.552Z,60.79
2022-10-29T12:55:25.070Z,61.12
2022-10-29T12:57:51.585Z,60.61
2022-10-29T13:00:24.091Z,58.91
2022-10-29T13:02:51.952Z,58.93
2022-10-29T13:05:35.762Z,58.71
2022-10-29T13:08:02.285Z,59.52
2022-10-29T13:10:28.743Z,59.31
2022-10-29T13:12:55.356Z,60.03
2022-10-29T13:15:24.171Z,60.13
2022-10-29T13:17:54.336Z,58.83
2022-10-29T13:20:33.031Z,58.97
2022-10-29T13:23:02.878Z,58.71
2022-10-29T13:25:38.048Z,58.83
2022-10-29T13:28:27.297Z,57.35
2022-10-29T13:31:14.298Z,58.43
2022-10-29T13:33:40.796Z,58.33
2022-10-29T13:36:16.356Z,58.21
2022-10-29T13:38:57.944Z,57.76
2022-10-29T13:41:38.130Z,57.03
2022-10-29T13:44:19.580Z,57.04
2022-10-29T13:46:47.714Z,57.66
2022-10-29T13:49:32.348Z,57.14
2022-10-29T13:52:17.253Z,57.36
2022-10-29T13:54:49.476Z,57.37
2022-10-29T13:57:22.058Z,56.95
2022-10-29T13:59:55.552Z,57.39
2022-10-29T14:02:37.364Z,56.98
2022-10-29T14:05:09.177Z,57.85
2022-10-29T14:07:45.584Z,58.02
2022-10-29T14:10:20.528Z,57.95
2022-10-29T14:12:51.397Z,58.73
2022-10-29T14:15:18.077Z,58.06
2022-10-29T14:17:44.653Z,58.06
2022-10-29T14:20:26.893Z,57.82
2022-10-29T14:22:54.125Z,57.95
2022-10-29T14:25:36.713Z,56.81
2022-10-29T14:28:14.860Z,56.45
2022-10-29T14:30:41.644Z,56.93
2022-10-29T14:33:38.549Z,56.82
2022-10-29T14:36:32.113Z,56.50
2022-10-29T14:39:05.446Z,56.78
2022-10-29T14:41:32.329Z,57.23
2022-10-29T14:44:07.007Z,56.62
2022-10-29T14:46:35.827Z,56.70
2022-10-29T14:49:11.459Z,56.75
2022-10-29T14:52:17.257Z,56.30
2022-10-29T14:54:48.286Z,56.30
2022-10-29T14:57:17.941Z,56.28
2022-10-29T14:59:51.893Z,56.38
2022-10-29T15:02:37.065Z,56.68
2022-10-29T15:05:25.521Z,56.48
2022-10-29T15:08:03.058Z,57.16
2022-10-29T15:10:29.754Z,57.53
2022-10-29T15:12:56.571Z,57.45
2022-10-29T15:15:26.187Z,57.86
2022-10-29T15:18:17.869Z,58.12
2022-10-29T15:20:46.222Z,58.19
2022-10-29T15:23:32.054Z,58.33
2022-10-29T15:26:02.852Z,58.37
2022-10-29T15:28:31.606Z,58.79
2022-10-29T15:31:02.202Z,59.37
2022-10-29T15:33:30.137Z,59.64
2022-10-29T15:36:01.970Z,59.88
2022-10-29T15:38:31.707Z,58.96
2022-10-29T15:41:38.394Z,58.83
2022-10-29T15:44:40.066Z,58.90
2022-10-29T15:47:19.852Z,59.96
2022-10-29T15:49:46.541Z,59.54
2022-10-29T15:52:17.048Z,59.93
2022-10-29T15:54:43.805Z,59.65
2022-10-29T15:57:13.622Z,59.76
2022-10-29T15:59:40.688Z,59.92
2022-10-29T16:02:15.487Z,59.77
2022-10-29T16:04:42.135Z,59.74
2022-10-29T16:07:12.876Z,59.96
2022-10-29T16:09:46.767Z,59.96
2022-10-29T16:12:13.767Z,59.73
2022-10-29T16:14:40.284Z,59.92
2022-10-29T16:17:18.522Z,60.79
2022-10-29T16:19:45.313Z,60.50
2022-10-29T16:22:27.903Z,60.07
2022-10-29T16:24:54.977Z,60.29
2022-10-29T16:27:21.600Z,60.06
2022-10-29T16:29:48.502Z,63.72
2022-10-29T16:32:17.540Z,61.04
2022-10-29T16:34:44.151Z,60.17
2022-10-29T16:37:16.647Z,59.19
2022-10-29T16:39:44.040Z,59.72
2022-10-29T16:42:33.405Z,61.19
2022-10-29T16:45:00.069Z,60.74
2022-10-29T16:47:26.639Z,59.87
2022-10-29T16:49:53.312Z,60.85
2022-10-29T16:52:23.111Z,59.71
2022-10-29T16:54:50.901Z,59.52
2022-10-29T16:57:17.440Z,59.09
2022-10-29T16:59:44.077Z,59.92
2022-10-29T17:02:11.983Z,60.25
2022-10-29T17:04:38.686Z,64.48
2022-10-29T17:07:05.229Z,63.99
2022-10-29T17:09:31.854Z,64.14
2022-10-29T17:11:58.387Z,65.13
2022-10-29T17:14:25.022Z,64.03
2022-10-29T17:16:51.532Z,63.01
2022-10-29T17:19:18.216Z,62.57
2022-10-29T17:21:44.717Z,62.91
2022-10-29T17:24:11.408Z,64.42
2022-10-29T17:26:37.966Z,65.22
2022-10-29T17:29:04.530Z,65.88
2022-10-29T17:31:31.040Z,66.02
2022-10-29T17:33:57.939Z,64.08
2022-10-29T17:36:24.467Z,64.66
2022-10-29T17:38:51.030Z,64.75
2022-10-29T17:41:17.686Z,65.72
2022-10-29T17:43:44.303Z,65.84
2022-10-29T17:46:10.800Z,65.80
2022-10-29T17:48:37.471Z,65.63
2022-10-29T17:51:04.172Z,66.17
2022-10-29T17:53:31.195Z,66.10
2022-10-29T17:55:59.273Z,66.47
2022-10-29T17:58:26.113Z,65.85
2022-10-29T18:00:52.895Z,66.29
2022-10-29T18:03:19.683Z,66.15
2022-10-29T18:05:46.200Z,65.90
2022-10-29T18:08:12.772Z,65.97
2022-10-29T18:10:39.356Z,65.27
2022-10-29T18:13:05.961Z,64.25
2022-10-29T18:15:32.494Z,66.13
2022-10-29T18:17:59.361Z,66.27
2022-10-29T18:20:26.002Z,66.41
2022-10-29T18:22:55.885Z,65.68
2022-10-29T18:25:22.877Z,65.43
2022-10-29T18:27:49.451Z,64.56
2022-10-29T18:30:16.036Z,64.07
2022-10-29T18:32:42.639Z,62.17
2022-10-29T18:35:09.763Z,61.31
2022-10-29T18:37:36.344Z,61.34
2022-10-29T18:40:02.979Z,61.29
2022-10-29T18:42:29.587Z,61.52
2022-10-29T18:44:56.118Z,61.49
2022-10-29T18:47:22.811Z,61.48
2022-10-29T18:49:49.349Z,61.62
2022-10-29T18:52:15.902Z,61.86
2022-10-29T18:54:42.563Z,61.99
2022-10-29T18:57:09.191Z,61.96
2022-10-29T18:59:35.691Z,62.52
2022-10-29T19:02:02.417Z,62.88
2022-10-29T19:04:29.088Z,63.05
2022-10-29T19:06:55.664Z,63.04
2022-10-29T19:09:22.178Z,62.93
2022-10-29T19:11:53.958Z,63.01
2022-10-29T19:14:23.520Z,63.13
2022-10-29T19:16:59.336Z,63.11
2022-10-29T19:19:26.804Z,63.32
2022-10-29T19:21:53.586Z,63.39
2022-10-29T19:24:20.278Z,63.42
2022-10-29T19:26:46.956Z,63.84
2022-10-29T19:29:13.933Z,64.74
2022-10-29T19:31:40.625Z,65.17
2022-10-29T19:34:08.115Z,65.68
2022-10-29T19:36:36.379Z,66.52
2022-10-29T19:39:04.654Z,67.04
2022-10-29T19:41:31.996Z,67.14
2022-10-29T19:43:59.945Z,66.86
2022-10-29T19:46:27.173Z,67.11
2022-10-29T19:48:55.702Z,67.17
2022-10-29T19:51:23.292Z,67.53
2022-10-29T19:53:50.770Z,67.65
2022-10-29T19:56:18.261Z,67.96
2022-10-29T19:58:44.848Z,68.10
2022-10-29T20:01:13.980Z,68.23
2022-10-29T20:03:40.751Z,68.31
2022-10-29T20:06:08.173Z,68.75
2022-10-29T20:08:38.684Z,68.63
2022-10-29T20:11:05.996Z,69.05
2022-10-29T20:13:32.673Z,69.11
2022-10-29T20:15:59.545Z,69.37
2022-10-29T20:18:26.230Z,69.55
2022-10-29T20:20:56.961Z,69.36
2022-10-29T20:23:24.408Z,69.41
2022-10-29T20:25:51.005Z,69.10
2022-10-29T20:28:17.665Z,69.22
2022-10-29T20:30:44.256Z,69.37
2022-10-29T20:33:10.967Z,70.20
2022-10-29T20:35:37.548Z,70.20
2022-10-29T20:38:04.693Z,70.11
2022-10-29T20:40:31.332Z,70.08
2022-10-29T20:42:58.109Z,70.45
2022-10-29T20:45:24.713Z,70.19
2022-10-29T20:47:51.317Z,70.20
2022-10-29T20:50:18.245Z,70.23
2022-10-29T20:52:48.574Z,71.03
2022-10-29T20:55:16.286Z,70.83
2022-10-29T20:57:42.814Z,70.71
2022-10-29T21:00:10.149Z,70.71
2022-10-29T21:02:36.876Z,71.42
2022-10-29T21:05:03.827Z,70.76
2022-10-29T21:07:30.331Z,70.39
2022-10-29T21:09:57.057Z,70.31
2022-10-29T21:12:24.656Z,70.41
2022-10-29T21:14:51.283Z,70.85
2022-10-29T21:17:18.254Z,71.39
2022-10-29T21:19:46.203Z,71.80
2022-10-29T21:22:15.015Z,72.18
2022-10-29T21:24:44.715Z,71.99
2022-10-29T21:27:12.366Z,71.78
2022-10-29T21:29:39.048Z,71.42
2022-10-29T21:32:08.356Z,71.11
2022-10-29T21:34:36.759Z,71.16
2022-10-29T21:37:03.249Z,70.96
2022-10-29T21:39:29.875Z,71.10
2022-10-29T21:41:56.593Z,71.10
2022-10-29T21:44:24.249Z,71.17
2022-10-29T21:46:50.897Z,71.89
2022-10-29T21:49:17.920Z,71.95
2022-10-29T21:51:44.415Z,72.29
2022-10-29T21:54:11.073Z,72.55
2022-10-29T21:56:37.566Z,72.19
2022-10-29T21:59:04.127Z,72.36
2022-10-29T22:01:31.121Z,72.59
2022-10-29T22:03:59.925Z,72.88
2022-10-29T22:06:26.615Z,72.89
2022-10-29T22:08:58.661Z,73.62
2022-10-29T22:11:26.616Z,74.00
2022-10-29T22:13:54.573Z,73.93
2022-10-29T22:16:22.245Z,73.64
2022-10-29T22:18:50.909Z,73.64
2022-10-29T22:21:20.535Z,73.31
2022-10-29T22:23:53.221Z,73.74
2022-10-29T22:26:29.038Z,73.83
2022-10-29T22:28:55.866Z,73.94
2022-10-29T22:31:23.725Z,74.27
2022-10-29T22:33:50.874Z,73.83
2022-10-29T22:36:20.540Z,73.97
2022-10-29T22:38:51.748Z,73.89
2022-10-29T22:41:18.433Z,76.50
2022-10-29T22:43:45.723Z,78.58
2022-10-29T22:46:14.919Z,76.16
2022-10-29T22:48:41.912Z,75.14
2022-10-29T22:51:21.146Z,74.61
2022-10-29T22:53:48.170Z,74.19
2022-10-29T22:56:16.776Z,73.98
2022-10-29T22:58:43.846Z,74.26
2022-10-29T23:01:16.597Z,74.36
2022-10-29T23:03:43.857Z,74.31
2022-10-29T23:06:13.593Z,74.53
2022-10-29T23:08:40.465Z,74.25
2022-10-29T23:11:18.542Z,73.93
2022-10-29T23:13:48.927Z,73.86
2022-10-29T23:16:15.775Z,74.23
2022-10-29T23:18:42.803Z,73.93
2022-10-29T23:21:09.393Z,74.34
2022-10-29T23:23:36.520Z,74.15
2022-10-29T23:26:03.537Z,73.93
2022-10-29T23:28:32.445Z,73.38
2022-10-29T23:31:01.049Z,73.46
2022-10-29T23:33:29.358Z,73.10
2022-10-29T23:35:56.222Z,73.14
2022-10-29T23:38:22.897Z,73.21
2022-10-29T23:40:49.482Z,73.37
2022-10-29T23:43:16.033Z,73.16
2022-10-29T23:45:43.038Z,73.51
2022-10-29T23:48:10.508Z,73.56
2022-10-29T23:50:38.028Z,75.13
2022-10-29T23:53:05.219Z,74.94
2022-10-29T23:55:31.918Z,74.62
2022-10-29T23:57:58.696Z,75.21
